Yatesville, Illinois
Current Conditions -  °F | °C
As of 8:15 AM on Thursday 30 Oct 2014 (Local Time) from KIJX Reporting Station
Clear Clear  
Wind Chill: 40°   Ceiling: Unl
Heat Index: 44°   Visibility: 10mi
Dew Point: 38°   Wind: 7mph
Humidity: 78%   Direction: 160°SSE
Pressure: 30.14"   Gusts: NA
Location:  39.9123°N, 90.0575°W
Report Text: KIJX 301315Z AUTO 16006KT 10SM CLR 07/03 A3014 RMK AO2 T00660031
Loading
Personal Weather Stations






























Interactive Weather Map
Tropical Storm Tracking
New forecast layout! Learn more

10-Day Weather Forecast

Advertisements
Track Severe Weather on mobile